Mount Ayr, Iowa
Current Conditions -  °F | °C
As of 4:53 AM on Monday 20 Oct 2014 (Local Time) from KLWD Reporting Station
Clear Clear  
Wind Chill: 46°   Ceiling: Unl
Heat Index: 49°   Visibility: 10mi
Dew Point: 45°   Wind: 7mph
Humidity: 86%   Direction: 290°WNW
Pressure: 29.96"   Gusts: NA
Location:  40.71°N, 94.24°W
Report Text: KLWD 200953Z AUTO 29006KT 10SM CLR 09/07 A2996 RMK AO2 SLP144 T00940072
Loading
Personal Weather Stations






























Interactive Weather Map
Tropical Storm Tracking
New forecast layout! Learn more

10-Day Weather Forecast

Advertisements
Track Severe Weather on mobile